Time;durP1;ratioP1;P1;durP2;ratioP2;P2;SDS_P1;SDS_P2;PMS_P1;PMS_P2;Temp;Humidity;BMP_temperature;BMP_pressure;BME280_temperature;BME280_humidity;BME280_pressure;Samples;Min_cycle;Max_cycle;Signal;HPM_P1;HPM_P2
2023/05/17 00:01:31;;;;;;;;;;;;;;;11.48;75.20;102277.41;20792691;28;20273;-55
2023/05/17 00:11:52;;;;;;;;;;;;;;;11.31;75.83;102284.50;20777189;28;19925;-55
2023/05/17 00:22:14;;;;;;;;;;;;;;;11.17;74.89;102292.38;20786853;28;20282;-55
2023/05/17 00:32:35;;;;;;;;;;;;;;;10.95;74.04;102286.53;20786151;28;20328;-55
2023/05/17 00:42:57;;;;;;;;;;;;;;;10.84;73.88;102290.09;20802336;28;20292;-55
2023/05/17 00:53:18;;;;;;;;;;;;;;;10.63;73.93;102288.50;20801779;28;19933;-56
2023/05/17 01:03:40;;;;;;;;;;;;;;;10.45;74.73;102298.13;20799618;28;19943;-54
2023/05/17 01:14:08;;;;;;;;;;;;;;;10.40;73.44;102305.06;20808418;28;19926;-55
2023/05/17 01:24:49;;;;;;;;;;;;;;;10.39;74.18;102306.78;20780191;28;19925;-53
2023/05/17 01:35:11;;;;;;;;;;;;;;;10.33;73.91;102314.56;20799309;28;19925;-55
2023/05/17 01:45:37;;;;;;;;;;;;;;;10.23;73.89;102318.06;20804735;28;20374;-55
2023/05/17 01:56:02;;;;;;;;;;;;;;;10.20;73.90;102336.16;20793989;28;19929;-55
2023/05/17 02:06:24;;;;;;;;;;;;;;;10.07;74.30;102337.91;20771981;28;19925;-55
2023/05/17 02:16:45;;;;;;;;;;;;;;;9.90;74.75;102338.84;20792918;28;20261;-54
2023/05/17 02:27:06;;;;;;;;;;;;;;;9.83;75.90;102357.84;20789684;28;20091;-54
2023/05/17 02:37:28;;;;;;;;;;;;;;;9.72;75.78;102365.63;20785181;28;19929;-54
2023/05/17 02:47:49;;;;;;;;;;;;;;;9.68;76.00;102383.72;20805480;28;19949;-52
2023/05/17 02:58:11;;;;;;;;;;;;;;;9.51;76.16;102390.59;20790646;28;19932;-54
2023/05/17 03:08:32;;;;;;;;;;;;;;;9.47;76.80;102399.25;20783981;28;19936;-55
2023/05/17 03:18:54;;;;;;;;;;;;;;;9.38;75.24;102414.72;20797009;28;19932;-55
2023/05/17 03:29:15;;;;;;;;;;;;;;;9.43;74.00;102438.84;20797656;28;19925;-54
2023/05/17 03:39:37;;;;;;;;;;;;;;;9.42;73.12;102442.28;20791235;28;20344;-55
2023/05/17 03:49:58;;;;;;;;;;;;;;;9.41;71.67;102450.91;20790629;28;19936;-54
2023/05/17 04:00:20;;;;;;;;;;;;;;;9.49;69.71;102457.78;20780315;28;20351;-54
2023/05/17 04:10:42;;;;;;;;;;;;;;;9.61;69.07;102475.91;20780842;28;19978;-52
2023/05/17 04:21:04;;;;;;;;;;;;;;;9.75;69.43;102476.75;20781332;28;20322;-54
2023/05/17 04:31:25;;;;;;;;;;;;;;;9.85;68.89;102500.88;20778487;28;19925;-53
2023/05/17 04:41:47;;;;;;;;;;;;;;;9.89;68.58;102502.59;20766149;28;20285;-55
2023/05/17 04:52:08;;;;;;;;;;;;;;;9.97;68.19;102516.38;20766867;28;19940;-54
2023/05/17 05:02:30;;;;;;;;;;;;;;;9.96;67.75;102512.94;20782818;28;19956;-56
2023/05/17 05:12:51;;;;;;;;;;;;;;;10.07;67.68;102531.88;20778134;28;20424;-55
2023/05/17 05:23:12;;;;;;;;;;;;;;;10.22;67.53;102549.16;20781366;28;19987;-55
2023/05/17 05:33:35;;;;;;;;;;;;;;;10.25;67.04;102574.16;20790886;28;19925;-55
2023/05/17 05:43:56;;;;;;;;;;;;;;;10.27;67.50;102582.81;20790154;28;19941;-55
2023/05/17 05:54:18;;;;;;;;;;;;;;;10.34;68.05;102595.75;20790064;28;19960;-55
2023/05/17 06:04:39;;;;;;;;;;;;;;;10.41;67.94;102623.31;20803532;28;19929;-55
2023/05/17 06:15:06;;;;;;;;;;;;;;;10.49;66.77;102629.38;20784350;28;19929;-53
2023/05/17 06:25:28;;;;;;;;;;;;;;;10.50;65.47;102638.84;20783098;28;19933;-54
2023/05/17 06:35:49;;;;;;;;;;;;;;;10.51;65.81;102650.91;20793209;28;19933;-54
2023/05/17 06:46:18;;;;;;;;;;;;;;;10.54;64.88;102665.59;20785046;28;19940;-54
2023/05/17 06:56:39;;;;;;;;;;;;;;;10.58;65.28;102683.72;20789202;28;19975;-55
2023/05/17 07:07:01;;;;;;;;;;;;;;;10.57;66.22;102694.91;20781967;28;19936;-53
2023/05/17 07:17:22;;;;;;;;;;;;;;;10.74;64.69;102700.09;20792226;28;19929;-55
2023/05/17 07:27:44;;;;;;;;;;;;;;;10.76;64.43;102725.16;20783820;28;20320;-55
2023/05/17 07:38:09;;;;;;;;;;;;;;;10.70;64.44;102725.13;20798755;28;19933;-54
2023/05/17 07:48:30;;;;;;;;;;;;;;;10.83;64.77;102734.63;20784275;28;19944;-53
2023/05/17 07:58:52;;;;;;;;;;;;;;;10.96;63.74;102744.13;20797423;28;19948;-55
2023/05/17 08:09:16;;;;;;;;;;;;;;;11.28;63.32;102748.41;20786563;28;19933;-54
2023/05/17 08:19:38;;;;;;;;;;;;;;;11.33;63.16;102754.44;20779001;28;19929;-54
2023/05/17 08:30:00;;;;;;;;;;;;;;;11.46;62.91;102745.75;20780075;28;19925;-53
2023/05/17 08:40:29;;;;;;;;;;;;;;;11.64;59.31;102750.88;20774278;28;20048;-53
2023/05/17 08:50:53;;;;;;;;;;;;;;;11.92;61.90;102773.28;20788985;28;19925;-55
2023/05/17 09:01:15;;;;;;;;;;;;;;;11.93;59.92;102785.38;20792065;28;20380;-54
2023/05/17 09:11:37;;;;;;;;;;;;;;;11.77;62.61;102810.53;20803269;28;19925;-55
2023/05/17 09:21:59;;;;;;;;;;;;;;;11.91;58.53;102798.38;20789201;28;20463;-55
2023/05/17 09:32:21;;;;;;;;;;;;;;;11.86;61.60;102809.63;20790579;28;20296;-55
2023/05/17 09:42:46;;;;;;;;;;;;;;;11.93;61.50;102816.50;20793575;28;20298;-55
2023/05/17 09:53:21;;;;;;;;;;;;;;;12.03;62.55;102828.59;20787114;28;19933;-54
2023/05/17 10:03:42;;;;;;;;;;;;;;;12.31;64.15;102829.31;20786998;28;19929;-54
2023/05/17 10:14:08;;;;;;;;;;;;;;;12.25;64.32;102829.38;20791309;28;20460;-55
2023/05/17 10:24:30;;;;;;;;;;;;;;;12.19;63.37;102824.19;20786513;28;19925;-54
2023/05/17 10:34:52;;;;;;;;;;;;;;;12.42;62.85;102807.63;20781150;28;19936;-55
2023/05/17 10:45:31;;;;;;;;;;;;;;;12.33;62.78;102825.84;20790079;28;19959;-54
2023/05/17 10:55:53;;;;;;;;;;;;;;;12.41;55.88;102831.00;20785051;28;20427;-53
2023/05/17 11:06:21;;;;;;;;;;;;;;;12.73;59.45;102806.56;20783247;28;19925;-54
2023/05/17 11:16:46;;;;;;;;;;;;;;;12.90;54.16;102806.44;20783810;28;19972;-53
2023/05/17 11:27:07;;;;;;;;;;;;;;;13.35;56.94;102811.25;20785628;28;19926;-53
2023/05/17 11:37:29;;;;;;;;;;;;;;;13.19;58.37;102812.28;20783160;28;19933;-55
2023/05/17 11:47:51;;;;;;;;;;;;;;;13.33;59.18;102833.81;20786884;28;20292;-55
2023/05/17 11:58:14;;;;;;;;;;;;;;;13.37;57.26;102827.72;20783211;28;19937;-55
2023/05/17 12:08:37;;;;;;;;;;;;;;;13.37;57.74;102819.91;20789996;28;19928;-55
2023/05/17 12:18:58;;;;;;;;;;;;;;;13.38;58.21;102832.06;20785679;28;19931;-56
2023/05/17 12:29:22;;;;;;;;;;;;;;;13.16;55.70;102832.25;20789291;28;20048;-56
2023/05/17 12:39:43;;;;;;;;;;;;;;;13.00;58.52;102834.94;20781795;28;19925;-55
2023/05/17 12:50:05;;;;;;;;;;;;;;;12.93;60.19;102854.03;20785459;28;19926;-54
2023/05/17 13:00:26;;;;;;;;;;;;;;;12.93;55.40;102837.59;20783346;28;19936;-55
2023/05/17 13:10:48;;;;;;;;;;;;;;;13.05;58.90;102837.53;20784104;28;19936;-55
2023/05/17 13:21:10;;;;;;;;;;;;;;;13.32;58.35;102833.84;20784296;28;20491;-54
2023/05/17 13:31:31;;;;;;;;;;;;;;;13.19;56.52;102840.00;20795103;28;19931;-54
2023/05/17 13:41:53;;;;;;;;;;;;;;;13.15;56.17;102825.34;20786347;28;19926;-55
2023/05/17 13:52:17;;;;;;;;;;;;;;;13.50;56.57;102825.84;20791333;28;20668;-55
2023/05/17 14:02:38;;;;;;;;;;;;;;;13.55;57.75;102819.72;20778277;28;19928;-56
2023/05/17 14:13:00;;;;;;;;;;;;;;;13.55;57.27;102826.69;20798846;28;19973;-55
2023/05/17 14:23:21;;;;;;;;;;;;;;;13.51;57.44;102838.00;20788536;28;20020;-55
2023/05/17 14:33:43;;;;;;;;;;;;;;;13.47;58.52;102837.16;20790020;28;19929;-55
2023/05/17 14:44:04;;;;;;;;;;;;;;;13.20;59.55;102858.22;20784185;28;20001;-55
2023/05/17 14:54:30;;;;;;;;;;;;;;;13.21;60.06;102851.25;20784517;28;19929;-54
2023/05/17 15:04:52;;;;;;;;;;;;;;;13.30;59.54;102859.84;20789673;28;19939;-55
2023/05/17 15:15:14;;;;;;;;;;;;;;;13.15;55.41;102851.34;20804308;28;20004;-54
2023/05/17 15:25:35;;;;;;;;;;;;;;;13.24;59.51;102853.84;20767983;28;19925;-55
2023/05/17 15:35:57;;;;;;;;;;;;;;;13.24;60.46;102854.69;20767003;28;20368;-54
2023/05/17 15:46:19;;;;;;;;;;;;;;;13.06;55.39;102845.31;20778668;28;19932;-55
2023/05/17 15:56:40;;;;;;;;;;;;;;;13.19;53.32;102850.41;20771346;28;19944;-54
2023/05/17 16:07:02;;;;;;;;;;;;;;;13.36;59.59;102841.63;20782792;28;19930;-55
2023/05/17 16:17:23;;;;;;;;;;;;;;;13.28;60.15;102861.59;20785501;28;20295;-54
2023/05/17 16:27:45;;;;;;;;;;;;;;;13.05;59.92;102868.72;20789004;28;20376;-53
2023/05/17 16:38:07;;;;;;;;;;;;;;;12.92;60.70;102878.31;20787312;28;19932;-54
2023/05/17 16:48:28;;;;;;;;;;;;;;;12.71;61.57;102883.63;20788340;28;19956;-55
2023/05/17 16:58:51;;;;;;;;;;;;;;;12.68;61.62;102899.25;20775562;28;19933;-54
2023/05/17 17:09:13;;;;;;;;;;;;;;;12.69;60.95;102900.13;20778051;28;19998;-55
2023/05/17 17:19:34;;;;;;;;;;;;;;;12.62;59.16;102908.78;20800058;28;20366;-55
2023/05/17 17:29:55;;;;;;;;;;;;;;;12.60;59.90;102911.41;20801826;28;19940;-55
2023/05/17 17:40:17;;;;;;;;;;;;;;;12.52;60.95;102910.59;20805042;28;19955;-55
2023/05/17 17:50:38;;;;;;;;;;;;;;;12.29;58.96;102925.38;20807917;28;19929;-56
2023/05/17 18:01:00;;;;;;;;;;;;;;;12.18;60.77;102937.53;20802361;28;20012;-55
2023/05/17 18:11:21;;;;;;;;;;;;;;;12.09;59.38;102942.75;20793761;28;20015;-55
2023/05/17 18:21:43;;;;;;;;;;;;;;;12.01;59.27;102949.69;20790614;28;19926;-55
2023/05/17 18:32:05;;;;;;;;;;;;;;;11.82;59.45;102953.16;20798677;28;19940;-54
2023/05/17 18:42:27;;;;;;;;;;;;;;;11.72;60.38;102956.66;20798094;28;19925;-55
2023/05/17 18:52:48;;;;;;;;;;;;;;;11.62;56.35;102955.75;20801901;28;20054;-55
2023/05/17 19:03:10;;;;;;;;;;;;;;;11.69;61.30;102961.81;20784075;28;19929;-54
2023/05/17 19:13:31;;;;;;;;;;;;;;;11.65;61.82;102960.09;20800573;28;19933;-55
2023/05/17 19:23:53;;;;;;;;;;;;;;;11.53;61.83;102965.25;20791336;28;20358;-55
2023/05/17 19:34:14;;;;;;;;;;;;;;;11.37;60.78;102974.75;20768122;28;19955;-55
2023/05/17 19:44:36;;;;;;;;;;;;;;;11.28;61.38;102973.88;20800333;28;20334;-54
2023/05/17 19:54:57;;;;;;;;;;;;;;;11.22;62.45;102986.81;20771501;28;19925;-53
2023/05/17 20:05:19;;;;;;;;;;;;;;;11.15;60.12;102994.56;20780585;28;20295;-55
2023/05/17 20:15:40;;;;;;;;;;;;;;;11.20;62.35;102985.94;20761887;28;19928;-55
2023/05/17 20:26:02;;;;;;;;;;;;;;;11.22;62.69;102987.69;20782056;28;19932;-54
2023/05/17 20:36:24;;;;;;;;;;;;;;;11.15;60.83;102983.34;20776418;28;20024;-56
2023/05/17 20:46:45;;;;;;;;;;;;;;;11.10;62.89;102982.44;20781946;28;19941;-56
2023/05/17 20:57:07;;;;;;;;;;;;;;;11.04;62.20;102991.06;20788724;28;19956;-55
2023/05/17 21:07:28;;;;;;;;;;;;;;;10.97;62.61;102989.31;20806925;28;19929;-56
2023/05/17 21:17:50;;;;;;;;;;;;;;;10.81;61.14;102986.69;20778732;28;19925;-55
2023/05/17 21:28:11;;;;;;;;;;;;;;;10.85;61.56;102983.25;20797269;28;19971;-53
2023/05/17 21:38:33;;;;;;;;;;;;;;;10.79;62.03;102976.31;20810488;28;19929;-55
2023/05/17 21:48:54;;;;;;;;;;;;;;;10.81;61.46;102979.78;20804610;28;19925;-55
2023/05/17 21:59:16;;;;;;;;;;;;;;;10.73;61.30;102978.88;20786712;28;20394;-55
2023/05/17 22:09:37;;;;;;;;;;;;;;;10.80;61.14;102970.28;20793838;28;19949;-54
2023/05/17 22:20:01;;;;;;;;;;;;;;;10.72;63.09;102982.34;20792318;28;19932;-55
2023/05/17 22:30:23;;;;;;;;;;;;;;;10.70;62.76;102973.69;20785716;28;19930;-54
2023/05/17 22:40:44;;;;;;;;;;;;;;;10.66;62.88;102974.53;20785809;28;19943;-55
2023/05/17 22:51:06;;;;;;;;;;;;;;;10.64;63.01;102984.00;20790127;28;19926;-55
2023/05/17 23:01:27;;;;;;;;;;;;;;;10.65;63.99;102990.94;20785698;28;19973;-53
2023/05/17 23:11:49;;;;;;;;;;;;;;;10.63;64.07;102990.06;20787189;28;19925;-54
2023/05/17 23:22:10;;;;;;;;;;;;;;;10.63;63.62;102991.78;20789490;28;19925;-54
2023/05/17 23:32:32;;;;;;;;;;;;;;;10.57;63.14;102997.78;20791408;28;20299;-55
2023/05/17 23:42:54;;;;;;;;;;;;;;;10.56;63.97;102992.63;20793327;28;19987;-55
2023/05/17 23:53:17;;;;;;;;;;;;;;;10.54;63.79;102989.16;20777720;28;20430;-53
